sensor_id;sensor_type;location;lat;lon;timestamp;P1;durP1;ratioP1;P2;durP2;ratioP2
66012;SDS011;52783;50.502;8.190;2023-12-28T00:01:31;4.72;;;2.90;;
66012;SDS011;52783;50.502;8.190;2023-12-28T00:03:57;5.72;;;2.80;;
66012;SDS011;52783;50.502;8.190;2023-12-28T00:06:22;3.63;;;2.70;;
66012;SDS011;52783;50.502;8.190;2023-12-28T00:08:48;7.50;;;3.00;;
66012;SDS011;52783;50.502;8.190;2023-12-28T00:11:13;3.85;;;2.72;;
66012;SDS011;52783;50.502;8.190;2023-12-28T00:13:39;5.13;;;2.63;;
66012;SDS011;52783;50.502;8.190;2023-12-28T00:16:05;7.22;;;2.88;;
66012;SDS011;52783;50.502;8.190;2023-12-28T00:18:30;4.60;;;2.55;;
66012;SDS011;52783;50.502;8.190;2023-12-28T00:20:57;4.15;;;2.55;;
66012;SDS011;52783;50.502;8.190;2023-12-28T00:23:22;4.03;;;2.50;;
66012;SDS011;52783;50.502;8.190;2023-12-28T00:25:48;3.00;;;2.28;;
66012;SDS011;52783;50.502;8.190;2023-12-28T00:28:13;4.05;;;2.60;;
66012;SDS011;52783;50.502;8.190;2023-12-28T00:30:39;3.40;;;2.30;;
66012;SDS011;52783;50.502;8.190;2023-12-28T00:33:04;3.20;;;2.30;;
66012;SDS011;52783;50.502;8.190;2023-12-28T00:35:30;2.70;;;2.28;;
66012;SDS011;52783;50.502;8.190;2023-12-28T00:37:55;3.60;;;2.58;;
66012;SDS011;52783;50.502;8.190;2023-12-28T00:40:23;3.72;;;2.60;;
66012;SDS011;52783;50.502;8.190;2023-12-28T00:42:48;4.88;;;2.47;;
66012;SDS011;52783;50.502;8.190;2023-12-28T00:45:14;4.07;;;2.33;;
66012;SDS011;52783;50.502;8.190;2023-12-28T00:47:40;2.35;;;2.15;;
66012;SDS011;52783;50.502;8.190;2023-12-28T00:50:09;3.75;;;2.15;;
66012;SDS011;52783;50.502;8.190;2023-12-28T00:52:40;5.45;;;2.90;;
66012;SDS011;52783;50.502;8.190;2023-12-28T00:55:06;3.38;;;2.53;;
66012;SDS011;52783;50.502;8.190;2023-12-28T00:57:32;2.92;;;2.45;;
66012;SDS011;52783;50.502;8.190;2023-12-28T00:59:58;4.38;;;2.63;;
66012;SDS011;52783;50.502;8.190;2023-12-28T01:02:24;6.72;;;2.50;;
66012;SDS011;52783;50.502;8.190;2023-12-28T01:04:49;4.45;;;2.72;;
66012;SDS011;52783;50.502;8.190;2023-12-28T01:07:15;7.75;;;2.58;;
66012;SDS011;52783;50.502;8.190;2023-12-28T01:09:40;5.05;;;2.70;;
66012;SDS011;52783;50.502;8.190;2023-12-28T01:12:06;6.63;;;2.70;;
66012;SDS011;52783;50.502;8.190;2023-12-28T01:14:32;4.88;;;2.42;;
66012;SDS011;52783;50.502;8.190;2023-12-28T01:16:58;3.80;;;2.60;;
66012;SDS011;52783;50.502;8.190;2023-12-28T01:19:23;3.20;;;2.40;;
66012;SDS011;52783;50.502;8.190;2023-12-28T01:21:49;3.53;;;2.60;;
66012;SDS011;52783;50.502;8.190;2023-12-28T01:24:15;4.63;;;2.72;;
66012;SDS011;52783;50.502;8.190;2023-12-28T01:26:40;4.95;;;2.45;;
66012;SDS011;52783;50.502;8.190;2023-12-28T01:29:06;2.78;;;2.55;;
66012;SDS011;52783;50.502;8.190;2023-12-28T01:31:31;6.40;;;2.83;;
66012;SDS011;52783;50.502;8.190;2023-12-28T01:33:57;6.70;;;2.83;;
66012;SDS011;52783;50.502;8.190;2023-12-28T01:36:23;4.65;;;2.75;;
66012;SDS011;52783;50.502;8.190;2023-12-28T01:38:48;5.75;;;2.60;;
66012;SDS011;52783;50.502;8.190;2023-12-28T01:41:14;3.85;;;2.40;;
66012;SDS011;52783;50.502;8.190;2023-12-28T01:43:40;4.15;;;2.70;;
66012;SDS011;52783;50.502;8.190;2023-12-28T01:46:08;4.35;;;2.35;;
66012;SDS011;52783;50.502;8.190;2023-12-28T01:51:06;3.05;;;2.42;;
66012;SDS011;52783;50.502;8.190;2023-12-28T01:53:32;8.73;;;3.00;;
66012;SDS011;52783;50.502;8.190;2023-12-28T01:55:58;3.63;;;2.50;;
66012;SDS011;52783;50.502;8.190;2023-12-28T01:58:24;4.03;;;2.47;;
66012;SDS011;52783;50.502;8.190;2023-12-28T02:00:55;3.88;;;2.45;;
66012;SDS011;52783;50.502;8.190;2023-12-28T02:03:21;4.47;;;2.60;;
66012;SDS011;52783;50.502;8.190;2023-12-28T02:05:47;4.15;;;2.50;;
66012;SDS011;52783;50.502;8.190;2023-12-28T02:08:13;4.53;;;2.65;;
66012;SDS011;52783;50.502;8.190;2023-12-28T02:10:39;4.07;;;2.55;;
66012;SDS011;52783;50.502;8.190;2023-12-28T02:13:04;2.83;;;2.42;;
66012;SDS011;52783;50.502;8.190;2023-12-28T02:15:30;5.53;;;2.45;;
66012;SDS011;52783;50.502;8.190;2023-12-28T02:18:06;5.78;;;2.90;;
66012;SDS011;52783;50.502;8.190;2023-12-28T02:20:37;11.93;;;2.80;;
66012;SDS011;52783;50.502;8.190;2023-12-28T02:23:05;3.47;;;2.78;;
66012;SDS011;52783;50.502;8.190;2023-12-28T02:25:31;4.07;;;2.55;;
66012;SDS011;52783;50.502;8.190;2023-12-28T02:27:57;4.25;;;2.90;;
66012;SDS011;52783;50.502;8.190;2023-12-28T02:30:23;7.40;;;3.33;;
66012;SDS011;52783;50.502;8.190;2023-12-28T02:33:02;3.70;;;2.80;;
66012;SDS011;52783;50.502;8.190;2023-12-28T02:35:55;4.97;;;2.88;;
66012;SDS011;52783;50.502;8.190;2023-12-28T02:38:24;5.72;;;2.67;;
66012;SDS011;52783;50.502;8.190;2023-12-28T02:40:50;3.65;;;2.75;;
66012;SDS011;52783;50.502;8.190;2023-12-28T02:43:16;5.30;;;2.67;;
66012;SDS011;52783;50.502;8.190;2023-12-28T02:45:42;4.68;;;2.88;;
66012;SDS011;52783;50.502;8.190;2023-12-28T02:48:07;4.53;;;2.65;;
66012;SDS011;52783;50.502;8.190;2023-12-28T02:50:33;4.82;;;2.90;;
66012;SDS011;52783;50.502;8.190;2023-12-28T02:52:59;4.45;;;2.85;;
66012;SDS011;52783;50.502;8.190;2023-12-28T02:55:25;4.60;;;2.70;;
66012;SDS011;52783;50.502;8.190;2023-12-28T02:57:52;7.70;;;3.22;;
66012;SDS011;52783;50.502;8.190;2023-12-28T03:00:20;7.40;;;2.60;;
66012;SDS011;52783;50.502;8.190;2023-12-28T03:02:46;3.20;;;2.55;;
66012;SDS011;52783;50.502;8.190;2023-12-28T03:05:11;4.43;;;2.70;;
66012;SDS011;52783;50.502;8.190;2023-12-28T03:07:37;5.90;;;3.17;;
66012;SDS011;52783;50.502;8.190;2023-12-28T03:10:03;6.07;;;3.13;;
66012;SDS011;52783;50.502;8.190;2023-12-28T03:12:29;4.38;;;2.80;;
66012;SDS011;52783;50.502;8.190;2023-12-28T03:14:55;4.20;;;3.05;;
66012;SDS011;52783;50.502;8.190;2023-12-28T03:17:21;6.20;;;2.97;;
66012;SDS011;52783;50.502;8.190;2023-12-28T03:19:48;4.20;;;2.42;;
66012;SDS011;52783;50.502;8.190;2023-12-28T03:22:13;4.72;;;2.63;;
66012;SDS011;52783;50.502;8.190;2023-12-28T03:24:40;4.63;;;2.33;;
66012;SDS011;52783;50.502;8.190;2023-12-28T03:27:06;4.45;;;2.70;;
66012;SDS011;52783;50.502;8.190;2023-12-28T03:29:31;5.15;;;3.03;;
66012;SDS011;52783;50.502;8.190;2023-12-28T03:31:58;4.07;;;2.60;;
66012;SDS011;52783;50.502;8.190;2023-12-28T03:34:24;3.35;;;2.40;;
66012;SDS011;52783;50.502;8.190;2023-12-28T03:36:51;7.82;;;2.60;;
66012;SDS011;52783;50.502;8.190;2023-12-28T03:39:17;3.70;;;2.63;;
66012;SDS011;52783;50.502;8.190;2023-12-28T03:41:42;2.55;;;2.35;;
66012;SDS011;52783;50.502;8.190;2023-12-28T03:44:08;5.88;;;2.58;;
66012;SDS011;52783;50.502;8.190;2023-12-28T03:46:34;4.50;;;2.50;;
66012;SDS011;52783;50.502;8.190;2023-12-28T03:49:00;3.08;;;2.47;;
66012;SDS011;52783;50.502;8.190;2023-12-28T03:51:25;3.50;;;2.50;;
66012;SDS011;52783;50.502;8.190;2023-12-28T03:53:51;3.70;;;2.38;;
66012;SDS011;52783;50.502;8.190;2023-12-28T03:56:23;3.22;;;2.42;;
66012;SDS011;52783;50.502;8.190;2023-12-28T03:58:50;5.65;;;2.60;;
66012;SDS011;52783;50.502;8.190;2023-12-28T04:01:17;5.10;;;2.90;;
66012;SDS011;52783;50.502;8.190;2023-12-28T04:03:43;4.20;;;2.83;;
66012;SDS011;52783;50.502;8.190;2023-12-28T04:06:09;4.93;;;2.65;;
66012;SDS011;52783;50.502;8.190;2023-12-28T04:08:34;5.07;;;2.65;;
66012;SDS011;52783;50.502;8.190;2023-12-28T04:11:00;6.13;;;2.63;;
66012;SDS011;52783;50.502;8.190;2023-12-28T04:13:25;4.38;;;2.30;;
66012;SDS011;52783;50.502;8.190;2023-12-28T04:15:51;6.95;;;2.78;;
66012;SDS011;52783;50.502;8.190;2023-12-28T04:18:16;3.13;;;2.53;;
66012;SDS011;52783;50.502;8.190;2023-12-28T04:20:42;3.50;;;2.33;;
66012;SDS011;52783;50.502;8.190;2023-12-28T04:23:09;3.17;;;2.25;;
66012;SDS011;52783;50.502;8.190;2023-12-28T04:25:35;5.20;;;2.67;;
66012;SDS011;52783;50.502;8.190;2023-12-28T04:28:01;3.53;;;2.40;;
66012;SDS011;52783;50.502;8.190;2023-12-28T04:30:26;3.20;;;2.67;;
66012;SDS011;52783;50.502;8.190;2023-12-28T04:32:52;3.80;;;2.47;;
66012;SDS011;52783;50.502;8.190;2023-12-28T04:35:18;5.25;;;2.70;;
66012;SDS011;52783;50.502;8.190;2023-12-28T04:37:44;3.88;;;2.45;;
66012;SDS011;52783;50.502;8.190;2023-12-28T04:40:10;2.42;;;2.13;;
66012;SDS011;52783;50.502;8.190;2023-12-28T04:42:35;5.53;;;2.92;;
66012;SDS011;52783;50.502;8.190;2023-12-28T04:45:01;4.28;;;2.58;;
66012;SDS011;52783;50.502;8.190;2023-12-28T04:47:27;4.75;;;2.63;;
66012;SDS011;52783;50.502;8.190;2023-12-28T04:49:52;3.45;;;2.65;;
66012;SDS011;52783;50.502;8.190;2023-12-28T04:52:18;3.08;;;2.25;;
66012;SDS011;52783;50.502;8.190;2023-12-28T04:54:43;3.30;;;2.60;;
66012;SDS011;52783;50.502;8.190;2023-12-28T04:57:09;3.28;;;2.38;;
66012;SDS011;52783;50.502;8.190;2023-12-28T04:59:41;2.95;;;2.47;;
66012;SDS011;52783;50.502;8.190;2023-12-28T05:02:06;10.23;;;3.00;;
66012;SDS011;52783;50.502;8.190;2023-12-28T05:04:32;2.90;;;2.50;;
66012;SDS011;52783;50.502;8.190;2023-12-28T05:06:58;3.92;;;2.40;;
66012;SDS011;52783;50.502;8.190;2023-12-28T05:09:24;4.95;;;2.50;;
66012;SDS011;52783;50.502;8.190;2023-12-28T05:11:49;4.10;;;2.80;;
66012;SDS011;52783;50.502;8.190;2023-12-28T05:14:15;4.78;;;2.90;;
66012;SDS011;52783;50.502;8.190;2023-12-28T05:16:40;2.97;;;2.60;;
66012;SDS011;52783;50.502;8.190;2023-12-28T05:19:06;6.65;;;2.60;;
66012;SDS011;52783;50.502;8.190;2023-12-28T05:21:32;5.30;;;2.50;;
66012;SDS011;52783;50.502;8.190;2023-12-28T05:23:57;4.75;;;2.80;;
66012;SDS011;52783;50.502;8.190;2023-12-28T05:26:23;5.22;;;2.47;;
66012;SDS011;52783;50.502;8.190;2023-12-28T05:28:49;4.55;;;2.80;;
66012;SDS011;52783;50.502;8.190;2023-12-28T05:31:14;3.08;;;2.67;;
66012;SDS011;52783;50.502;8.190;2023-12-28T05:33:40;3.97;;;2.13;;
66012;SDS011;52783;50.502;8.190;2023-12-28T05:36:06;4.93;;;2.67;;
66012;SDS011;52783;50.502;8.190;2023-12-28T05:38:31;3.85;;;2.80;;
66012;SDS011;52783;50.502;8.190;2023-12-28T05:40:57;3.83;;;2.40;;
66012;SDS011;52783;50.502;8.190;2023-12-28T05:43:22;6.10;;;3.05;;
66012;SDS011;52783;50.502;8.190;2023-12-28T05:45:48;3.55;;;2.72;;
66012;SDS011;52783;50.502;8.190;2023-12-28T05:48:14;5.03;;;2.60;;
66012;SDS011;52783;50.502;8.190;2023-12-28T05:50:40;3.08;;;2.38;;
66012;SDS011;52783;50.502;8.190;2023-12-28T05:53:05;5.45;;;2.97;;
66012;SDS011;52783;50.502;8.190;2023-12-28T05:55:31;5.05;;;2.75;;
66012;SDS011;52783;50.502;8.190;2023-12-28T05:57:56;5.43;;;2.53;;
66012;SDS011;52783;50.502;8.190;2023-12-28T06:00:22;5.15;;;2.78;;
66012;SDS011;52783;50.502;8.190;2023-12-28T06:02:48;6.55;;;2.83;;
66012;SDS011;52783;50.502;8.190;2023-12-28T06:05:16;4.28;;;2.72;;
66012;SDS011;52783;50.502;8.190;2023-12-28T06:07:42;6.45;;;3.03;;
66012;SDS011;52783;50.502;8.190;2023-12-28T06:10:08;3.35;;;2.90;;
66012;SDS011;52783;50.502;8.190;2023-12-28T06:12:34;4.72;;;3.80;;
66012;SDS011;52783;50.502;8.190;2023-12-28T06:15:00;5.35;;;2.97;;
66012;SDS011;52783;50.502;8.190;2023-12-28T06:17:26;6.40;;;3.00;;
66012;SDS011;52783;50.502;8.190;2023-12-28T06:19:52;4.22;;;2.63;;
66012;SDS011;52783;50.502;8.190;2023-12-28T06:22:17;4.20;;;2.50;;
66012;SDS011;52783;50.502;8.190;2023-12-28T06:24:43;4.90;;;2.70;;
66012;SDS011;52783;50.502;8.190;2023-12-28T06:27:08;6.03;;;2.50;;
66012;SDS011;52783;50.502;8.190;2023-12-28T06:29:34;3.85;;;2.70;;
66012;SDS011;52783;50.502;8.190;2023-12-28T06:31:59;2.72;;;2.30;;
66012;SDS011;52783;50.502;8.190;2023-12-28T06:34:25;3.30;;;2.33;;
66012;SDS011;52783;50.502;8.190;2023-12-28T06:36:51;5.85;;;2.20;;
66012;SDS011;52783;50.502;8.190;2023-12-28T06:39:17;3.58;;;2.35;;
66012;SDS011;52783;50.502;8.190;2023-12-28T06:41:42;5.00;;;2.67;;
66012;SDS011;52783;50.502;8.190;2023-12-28T06:44:12;4.47;;;2.50;;
66012;SDS011;52783;50.502;8.190;2023-12-28T06:46:45;6.15;;;3.03;;
66012;SDS011;52783;50.502;8.190;2023-12-28T06:49:11;10.57;;;5.95;;
66012;SDS011;52783;50.502;8.190;2023-12-28T06:51:37;6.38;;;4.78;;
66012;SDS011;52783;50.502;8.190;2023-12-28T06:54:02;3.47;;;2.70;;
66012;SDS011;52783;50.502;8.190;2023-12-28T06:56:28;9.80;;;2.97;;
66012;SDS011;52783;50.502;8.190;2023-12-28T06:58:53;3.50;;;2.30;;
66012;SDS011;52783;50.502;8.190;2023-12-28T07:01:19;4.85;;;2.83;;
66012;SDS011;52783;50.502;8.190;2023-12-28T07:03:45;7.43;;;3.00;;
66012;SDS011;52783;50.502;8.190;2023-12-28T07:06:10;4.68;;;2.70;;
66012;SDS011;52783;50.502;8.190;2023-12-28T07:08:36;4.88;;;2.63;;
66012;SDS011;52783;50.502;8.190;2023-12-28T07:11:01;5.30;;;2.50;;
66012;SDS011;52783;50.502;8.190;2023-12-28T07:13:27;3.95;;;2.45;;
66012;SDS011;52783;50.502;8.190;2023-12-28T07:15:52;4.90;;;2.83;;
66012;SDS011;52783;50.502;8.190;2023-12-28T07:18:18;5.72;;;2.78;;
66012;SDS011;52783;50.502;8.190;2023-12-28T07:20:44;4.45;;;2.70;;
66012;SDS011;52783;50.502;8.190;2023-12-28T07:23:09;10.50;;;2.78;;
66012;SDS011;52783;50.502;8.190;2023-12-28T07:25:35;8.60;;;2.88;;
66012;SDS011;52783;50.502;8.190;2023-12-28T07:28:00;8.45;;;2.53;;
66012;SDS011;52783;50.502;8.190;2023-12-28T07:30:26;3.90;;;2.50;;
66012;SDS011;52783;50.502;8.190;2023-12-28T07:32:52;3.08;;;2.22;;
66012;SDS011;52783;50.502;8.190;2023-12-28T07:35:18;5.40;;;2.80;;
66012;SDS011;52783;50.502;8.190;2023-12-28T07:37:43;4.70;;;2.42;;
66012;SDS011;52783;50.502;8.190;2023-12-28T07:40:11;5.43;;;2.50;;
66012;SDS011;52783;50.502;8.190;2023-12-28T07:42:37;4.18;;;2.40;;
66012;SDS011;52783;50.502;8.190;2023-12-28T07:45:03;4.68;;;2.60;;
66012;SDS011;52783;50.502;8.190;2023-12-28T07:47:28;3.17;;;2.60;;
66012;SDS011;52783;50.502;8.190;2023-12-28T07:49:54;4.53;;;2.63;;
66012;SDS011;52783;50.502;8.190;2023-12-28T07:52:20;3.40;;;2.30;;
66012;SDS011;52783;50.502;8.190;2023-12-28T07:54:45;8.25;;;2.50;;
66012;SDS011;52783;50.502;8.190;2023-12-28T07:57:11;5.32;;;2.60;;
66012;SDS011;52783;50.502;8.190;2023-12-28T07:59:36;3.67;;;2.80;;
66012;SDS011;52783;50.502;8.190;2023-12-28T08:02:02;6.47;;;2.58;;
66012;SDS011;52783;50.502;8.190;2023-12-28T08:04:27;5.72;;;2.67;;
66012;SDS011;52783;50.502;8.190;2023-12-28T08:06:53;3.97;;;2.70;;
66012;SDS011;52783;50.502;8.190;2023-12-28T08:09:18;7.68;;;4.20;;
66012;SDS011;52783;50.502;8.190;2023-12-28T08:11:44;11.07;;;2.88;;
66012;SDS011;52783;50.502;8.190;2023-12-28T08:14:10;6.22;;;3.10;;
66012;SDS011;52783;50.502;8.190;2023-12-28T08:16:35;3.40;;;2.67;;
66012;SDS011;52783;50.502;8.190;2023-12-28T08:19:01;2.95;;;2.42;;
66012;SDS011;52783;50.502;8.190;2023-12-28T08:21:27;5.70;;;2.33;;
66012;SDS011;52783;50.502;8.190;2023-12-28T08:23:52;6.80;;;3.35;;
66012;SDS011;52783;50.502;8.190;2023-12-28T08:26:18;4.32;;;2.83;;
66012;SDS011;52783;50.502;8.190;2023-12-28T08:28:44;3.55;;;2.33;;
66012;SDS011;52783;50.502;8.190;2023-12-28T08:31:09;4.95;;;2.72;;
66012;SDS011;52783;50.502;8.190;2023-12-28T08:33:36;6.22;;;2.70;;
66012;SDS011;52783;50.502;8.190;2023-12-28T08:36:04;6.70;;;2.70;;
66012;SDS011;52783;50.502;8.190;2023-12-28T08:38:30;4.78;;;2.22;;
66012;SDS011;52783;50.502;8.190;2023-12-28T08:40:56;4.15;;;2.45;;
66012;SDS011;52783;50.502;8.190;2023-12-28T08:43:21;9.20;;;2.53;;
66012;SDS011;52783;50.502;8.190;2023-12-28T08:45:47;6.07;;;2.80;;
66012;SDS011;52783;50.502;8.190;2023-12-28T08:48:12;3.83;;;2.40;;
66012;SDS011;52783;50.502;8.190;2023-12-28T08:50:38;5.78;;;2.25;;
66012;SDS011;52783;50.502;8.190;2023-12-28T08:53:03;5.70;;;2.63;;
66012;SDS011;52783;50.502;8.190;2023-12-28T08:55:29;6.68;;;2.78;;
66012;SDS011;52783;50.502;8.190;2023-12-28T08:57:54;6.45;;;3.00;;
66012;SDS011;52783;50.502;8.190;2023-12-28T09:00:20;4.80;;;2.60;;
66012;SDS011;52783;50.502;8.190;2023-12-28T09:02:46;4.93;;;2.80;;
66012;SDS011;52783;50.502;8.190;2023-12-28T09:05:11;4.97;;;2.90;;
66012;SDS011;52783;50.502;8.190;2023-12-28T09:07:37;4.43;;;2.38;;
66012;SDS011;52783;50.502;8.190;2023-12-28T09:10:08;3.83;;;2.30;;
66012;SDS011;52783;50.502;8.190;2023-12-28T09:12:35;4.85;;;2.42;;
66012;SDS011;52783;50.502;8.190;2023-12-28T09:15:00;4.90;;;2.60;;
66012;SDS011;52783;50.502;8.190;2023-12-28T09:17:26;4.22;;;2.38;;
66012;SDS011;52783;50.502;8.190;2023-12-28T09:19:51;3.38;;;2.20;;
66012;SDS011;52783;50.502;8.190;2023-12-28T09:22:17;7.70;;;2.10;;
66012;SDS011;52783;50.502;8.190;2023-12-28T09:24:42;4.25;;;2.53;;
66012;SDS011;52783;50.502;8.190;2023-12-28T09:27:08;6.28;;;2.40;;
66012;SDS011;52783;50.502;8.190;2023-12-28T09:29:34;5.95;;;2.38;;
66012;SDS011;52783;50.502;8.190;2023-12-28T09:32:00;4.28;;;2.10;;
66012;SDS011;52783;50.502;8.190;2023-12-28T09:34:25;3.78;;;2.20;;
66012;SDS011;52783;50.502;8.190;2023-12-28T09:36:51;5.25;;;2.15;;
66012;SDS011;52783;50.502;8.190;2023-12-28T09:39:16;4.90;;;2.40;;
66012;SDS011;52783;50.502;8.190;2023-12-28T09:41:43;3.72;;;2.25;;
66012;SDS011;52783;50.502;8.190;2023-12-28T09:44:16;6.72;;;2.10;;
66012;SDS011;52783;50.502;8.190;2023-12-28T09:46:43;4.50;;;2.20;;
66012;SDS011;52783;50.502;8.190;2023-12-28T09:49:11;4.55;;;2.33;;
66012;SDS011;52783;50.502;8.190;2023-12-28T09:51:37;2.92;;;2.15;;
66012;SDS011;52783;50.502;8.190;2023-12-28T09:54:03;5.22;;;2.45;;
66012;SDS011;52783;50.502;8.190;2023-12-28T09:56:29;3.25;;;1.98;;
66012;SDS011;52783;50.502;8.190;2023-12-28T09:58:56;3.60;;;2.30;;
66012;SDS011;52783;50.502;8.190;2023-12-28T10:01:23;9.23;;;2.30;;
66012;SDS011;52783;50.502;8.190;2023-12-28T10:03:49;4.40;;;2.15;;
66012;SDS011;52783;50.502;8.190;2023-12-28T10:06:15;6.68;;;2.25;;
66012;SDS011;52783;50.502;8.190;2023-12-28T10:08:44;4.95;;;1.92;;
66012;SDS011;52783;50.502;8.190;2023-12-28T10:11:12;6.53;;;2.28;;
66012;SDS011;52783;50.502;8.190;2023-12-28T10:13:45;6.50;;;2.42;;
66012;SDS011;52783;50.502;8.190;2023-12-28T10:16:11;2.20;;;1.90;;
66012;SDS011;52783;50.502;8.190;2023-12-28T10:18:40;2.13;;;1.92;;
66012;SDS011;52783;50.502;8.190;2023-12-28T10:21:10;4.85;;;2.08;;
66012;SDS011;52783;50.502;8.190;2023-12-28T10:23:38;5.50;;;2.03;;
66012;SDS011;52783;50.502;8.190;2023-12-28T10:26:05;5.63;;;2.00;;
66012;SDS011;52783;50.502;8.190;2023-12-28T10:28:33;6.25;;;2.00;;
66012;SDS011;52783;50.502;8.190;2023-12-28T10:30:59;5.45;;;1.90;;
66012;SDS011;52783;50.502;8.190;2023-12-28T10:33:26;5.88;;;1.90;;
66012;SDS011;52783;50.502;8.190;2023-12-28T10:35:52;2.55;;;1.70;;
66012;SDS011;52783;50.502;8.190;2023-12-28T10:38:18;3.88;;;1.77;;
66012;SDS011;52783;50.502;8.190;2023-12-28T10:40:44;10.40;;;2.25;;
66012;SDS011;52783;50.502;8.190;2023-12-28T10:43:11;5.15;;;2.20;;
66012;SDS011;52783;50.502;8.190;2023-12-28T10:45:40;7.10;;;1.98;;
66012;SDS011;52783;50.502;8.190;2023-12-28T10:48:11;4.45;;;1.85;;
66012;SDS011;52783;50.502;8.190;2023-12-28T10:53:09;3.00;;;1.88;;
66012;SDS011;52783;50.502;8.190;2023-12-28T10:55:50;4.97;;;1.85;;
66012;SDS011;52783;50.502;8.190;2023-12-28T10:58:34;4.78;;;1.70;;
66012;SDS011;52783;50.502;8.190;2023-12-28T11:01:24;3.40;;;1.48;;
66012;SDS011;52783;50.502;8.190;2023-12-28T11:03:57;2.58;;;1.73;;
66012;SDS011;52783;50.502;8.190;2023-12-28T11:06:31;3.95;;;1.73;;
66012;SDS011;52783;50.502;8.190;2023-12-28T11:08:58;1.50;;;1.27;;
66012;SDS011;52783;50.502;8.190;2023-12-28T11:11:26;4.65;;;2.53;;
66012;SDS011;52783;50.502;8.190;2023-12-28T11:13:53;6.05;;;1.60;;
66012;SDS011;52783;50.502;8.190;2023-12-28T11:16:20;4.45;;;1.70;;
66012;SDS011;52783;50.502;8.190;2023-12-28T11:18:47;3.47;;;1.63;;
66012;SDS011;52783;50.502;8.190;2023-12-28T11:21:14;6.43;;;2.10;;
66012;SDS011;52783;50.502;8.190;2023-12-28T11:23:41;3.28;;;1.70;;
66012;SDS011;52783;50.502;8.190;2023-12-28T11:26:21;5.00;;;1.52;;
66012;SDS011;52783;50.502;8.190;2023-12-28T11:28:47;5.22;;;2.20;;
66012;SDS011;52783;50.502;8.190;2023-12-28T11:31:13;5.35;;;1.75;;
66012;SDS011;52783;50.502;8.190;2023-12-28T11:33:47;8.93;;;2.08;;
66012;SDS011;52783;50.502;8.190;2023-12-28T11:36:23;3.22;;;1.50;;
66012;SDS011;52783;50.502;8.190;2023-12-28T11:38:58;3.43;;;1.60;;
66012;SDS011;52783;50.502;8.190;2023-12-28T11:41:31;6.50;;;1.73;;
66012;SDS011;52783;50.502;8.190;2023-12-28T11:44:01;9.88;;;2.60;;
66012;SDS011;52783;50.502;8.190;2023-12-28T11:46:30;4.57;;;1.77;;
66012;SDS011;52783;50.502;8.190;2023-12-28T11:49:06;4.63;;;2.03;;
66012;SDS011;52783;50.502;8.190;2023-12-28T11:51:34;8.23;;;1.80;;
66012;SDS011;52783;50.502;8.190;2023-12-28T11:54:02;7.05;;;1.90;;
66012;SDS011;52783;50.502;8.190;2023-12-28T11:56:29;7.63;;;2.05;;
66012;SDS011;52783;50.502;8.190;2023-12-28T11:58:55;6.80;;;2.03;;
66012;SDS011;52783;50.502;8.190;2023-12-28T12:01:20;5.18;;;2.13;;
66012;SDS011;52783;50.502;8.190;2023-12-28T12:03:46;4.30;;;1.60;;
66012;SDS011;52783;50.502;8.190;2023-12-28T12:06:13;4.82;;;1.80;;
66012;SDS011;52783;50.502;8.190;2023-12-28T12:08:38;3.50;;;1.60;;
66012;SDS011;52783;50.502;8.190;2023-12-28T12:11:05;9.73;;;1.67;;
66012;SDS011;52783;50.502;8.190;2023-12-28T12:13:31;7.40;;;2.00;;
66012;SDS011;52783;50.502;8.190;2023-12-28T12:15:57;12.00;;;2.10;;
66012;SDS011;52783;50.502;8.190;2023-12-28T12:18:24;6.03;;;1.58;;
66012;SDS011;52783;50.502;8.190;2023-12-28T12:20:50;7.25;;;2.10;;
66012;SDS011;52783;50.502;8.190;2023-12-28T12:23:16;5.78;;;2.03;;
66012;SDS011;52783;50.502;8.190;2023-12-28T12:25:41;7.25;;;1.90;;
66012;SDS011;52783;50.502;8.190;2023-12-28T12:28:07;7.85;;;1.95;;
66012;SDS011;52783;50.502;8.190;2023-12-28T12:30:33;3.58;;;1.80;;
66012;SDS011;52783;50.502;8.190;2023-12-28T12:32:59;8.57;;;2.20;;
66012;SDS011;52783;50.502;8.190;2023-12-28T12:35:25;8.13;;;1.52;;
66012;SDS011;52783;50.502;8.190;2023-12-28T12:37:50;3.75;;;1.45;;
66012;SDS011;52783;50.502;8.190;2023-12-28T12:40:17;5.18;;;1.75;;
66012;SDS011;52783;50.502;8.190;2023-12-28T12:42:51;5.03;;;1.90;;
66012;SDS011;52783;50.502;8.190;2023-12-28T12:45:18;21.05;;;2.65;;
66012;SDS011;52783;50.502;8.190;2023-12-28T12:47:45;7.90;;;2.00;;
66012;SDS011;52783;50.502;8.190;2023-12-28T12:50:11;17.05;;;2.28;;
66012;SDS011;52783;50.502;8.190;2023-12-28T12:52:37;43.05;;;5.43;;
66012;SDS011;52783;50.502;8.190;2023-12-28T12:55:03;29.95;;;3.53;;
66012;SDS011;52783;50.502;8.190;2023-12-28T12:57:29;7.95;;;2.30;;
66012;SDS011;52783;50.502;8.190;2023-12-28T12:59:56;10.07;;;2.78;;
66012;SDS011;52783;50.502;8.190;2023-12-28T13:02:22;29.95;;;3.25;;
66012;SDS011;52783;50.502;8.190;2023-12-28T13:04:51;21.27;;;2.88;;
66012;SDS011;52783;50.502;8.190;2023-12-28T13:07:17;14.43;;;2.03;;
66012;SDS011;52783;50.502;8.190;2023-12-28T13:09:43;8.05;;;1.92;;
66012;SDS011;52783;50.502;8.190;2023-12-28T13:12:08;8.45;;;2.78;;
66012;SDS011;52783;50.502;8.190;2023-12-28T13:14:34;7.70;;;1.67;;
66012;SDS011;52783;50.502;8.190;2023-12-28T13:16:59;5.70;;;2.03;;
66012;SDS011;52783;50.502;8.190;2023-12-28T13:19:25;7.38;;;1.90;;
66012;SDS011;52783;50.502;8.190;2023-12-28T13:21:51;7.40;;;2.20;;
66012;SDS011;52783;50.502;8.190;2023-12-28T13:24:16;5.15;;;1.70;;
66012;SDS011;52783;50.502;8.190;2023-12-28T13:26:42;7.93;;;1.92;;
66012;SDS011;52783;50.502;8.190;2023-12-28T13:29:07;6.93;;;1.88;;
66012;SDS011;52783;50.502;8.190;2023-12-28T13:31:33;3.47;;;1.63;;
66012;SDS011;52783;50.502;8.190;2023-12-28T13:33:58;6.75;;;1.60;;
66012;SDS011;52783;50.502;8.190;2023-12-28T13:36:24;6.13;;;1.60;;
66012;SDS011;52783;50.502;8.190;2023-12-28T13:38:52;4.00;;;1.75;;
66012;SDS011;52783;50.502;8.190;2023-12-28T13:41:17;7.22;;;2.05;;
66012;SDS011;52783;50.502;8.190;2023-12-28T13:43:43;4.95;;;1.70;;
66012;SDS011;52783;50.502;8.190;2023-12-28T13:46:08;4.88;;;1.73;;
66012;SDS011;52783;50.502;8.190;2023-12-28T13:48:34;10.15;;;2.10;;
66012;SDS011;52783;50.502;8.190;2023-12-28T13:51:00;4.13;;;1.55;;
66012;SDS011;52783;50.502;8.190;2023-12-28T13:53:26;4.63;;;2.50;;
66012;SDS011;52783;50.502;8.190;2023-12-28T13:55:52;5.45;;;1.92;;
66012;SDS011;52783;50.502;8.190;2023-12-28T13:58:17;3.80;;;1.55;;
66012;SDS011;52783;50.502;8.190;2023-12-28T14:00:43;5.30;;;1.80;;
66012;SDS011;52783;50.502;8.190;2023-12-28T14:03:08;3.63;;;1.55;;
66012;SDS011;52783;50.502;8.190;2023-12-28T14:05:34;6.78;;;2.00;;
66012;SDS011;52783;50.502;8.190;2023-12-28T14:08:00;5.63;;;2.00;;
66012;SDS011;52783;50.502;8.190;2023-12-28T14:10:25;4.80;;;1.80;;
66012;SDS011;52783;50.502;8.190;2023-12-28T14:12:51;6.07;;;2.00;;
66012;SDS011;52783;50.502;8.190;2023-12-28T14:15:16;5.93;;;1.67;;
66012;SDS011;52783;50.502;8.190;2023-12-28T14:17:42;8.40;;;2.13;;
66012;SDS011;52783;50.502;8.190;2023-12-28T14:20:08;7.30;;;2.00;;
66012;SDS011;52783;50.502;8.190;2023-12-28T14:22:36;12.27;;;2.13;;
66012;SDS011;52783;50.502;8.190;2023-12-28T14:25:03;8.15;;;2.00;;
66012;SDS011;52783;50.502;8.190;2023-12-28T14:27:29;6.40;;;1.85;;
66012;SDS011;52783;50.502;8.190;2023-12-28T14:29:55;6.45;;;1.73;;
66012;SDS011;52783;50.502;8.190;2023-12-28T14:32:21;5.65;;;2.03;;
66012;SDS011;52783;50.502;8.190;2023-12-28T14:34:47;5.70;;;1.52;;
66012;SDS011;52783;50.502;8.190;2023-12-28T14:37:13;3.08;;;1.50;;
66012;SDS011;52783;50.502;8.190;2023-12-28T14:39:38;6.15;;;2.05;;
66012;SDS011;52783;50.502;8.190;2023-12-28T14:42:04;4.32;;;2.10;;
66012;SDS011;52783;50.502;8.190;2023-12-28T14:44:30;7.57;;;2.35;;
66012;SDS011;52783;50.502;8.190;2023-12-28T14:46:56;10.27;;;2.40;;
66012;SDS011;52783;50.502;8.190;2023-12-28T14:49:21;8.35;;;2.78;;